createdAt,value
2022-11-02T00:00:52.431Z,20
2022-11-02T00:01:55.061Z,20
2022-11-02T00:02:57.931Z,20
2022-11-02T00:04:00.789Z,20
2022-11-02T00:05:03.257Z,20
2022-11-02T00:06:05.737Z,20
2022-11-02T00:07:08.219Z,20.1
2022-11-02T00:08:10.149Z,19.9
2022-11-02T00:09:12.618Z,20
2022-11-02T00:10:15.100Z,20.3
2022-11-02T00:11:17.567Z,20.1
2022-11-02T00:12:19.534Z,20.2
2022-11-02T00:13:22.047Z,20.1
2022-11-02T00:14:24.519Z,20
2022-11-02T00:15:26.985Z,19.8
2022-11-02T00:16:29.197Z,20.1
2022-11-02T00:17:31.658Z,20.1
2022-11-02T00:18:34.163Z,20.2
2022-11-02T00:19:36.355Z,20.1
2022-11-02T00:20:38.831Z,20.2
2022-11-02T00:21:41.298Z,20.1
2022-11-02T00:22:43.211Z,20
2022-11-02T00:23:45.412Z,20.2
2022-11-02T00:24:47.888Z,20
2022-11-02T00:25:50.362Z,20.3
2022-11-02T00:26:51.984Z,20.1
2022-11-02T00:27:54.486Z,20.1
2022-11-02T00:28:57.257Z,20.1
2022-11-02T00:29:59.723Z,20
2022-11-02T00:31:01.914Z,20.1
2022-11-02T00:32:04.106Z,20.1
2022-11-02T00:33:06.910Z,20.3
2022-11-02T00:34:09.463Z,20.2
2022-11-02T00:35:11.391Z,20.2
2022-11-02T00:36:13.319Z,20.2
2022-11-02T00:37:15.495Z,20.2
2022-11-02T00:38:17.698Z,20.2
2022-11-02T00:39:19.915Z,20.4
2022-11-02T00:40:22.118Z,20.3
2022-11-02T00:41:23.750Z,20.2
2022-11-02T00:42:25.947Z,20.2
2022-11-02T00:43:28.471Z,20.3
2022-11-02T00:44:30.713Z,20.3
2022-11-02T00:45:32.637Z,20.3
2022-11-02T00:46:34.533Z,20.3
2022-11-02T00:47:36.740Z,20.3
2022-11-02T00:48:38.929Z,20.3
2022-11-02T00:49:40.832Z,20.3
2022-11-02T00:50:43.308Z,20.3
2022-11-02T00:51:45.555Z,20.2
2022-11-02T00:52:48.033Z,20.2
2022-11-02T00:53:50.237Z,20.3
2022-11-02T00:54:52.705Z,20.4
2022-11-02T00:55:54.877Z,20.4
2022-11-02T00:56:57.202Z,20.4
2022-11-02T00:57:59.308Z,20.4
2022-11-02T00:59:02.145Z,20.4
2022-11-02T01:00:04.679Z,20.4
2022-11-02T01:01:07.053Z,20.4
2022-11-02T01:02:10.488Z,20.4
2022-11-02T01:03:13.400Z,20.4
2022-11-02T01:04:15.669Z,20.5
2022-11-02T01:05:17.867Z,20.3
2022-11-02T01:06:20.341Z,20.4
2022-11-02T01:07:22.814Z,20.4
2022-11-02T01:08:25.278Z,20.5
2022-11-02T01:09:27.758Z,20.4
2022-11-02T01:10:29.974Z,20.4
2022-11-02T01:11:32.444Z,20.5
2022-11-02T01:12:34.639Z,20.4
2022-11-02T01:13:37.115Z,20.5
2022-11-02T01:14:39.622Z,20.3
2022-11-02T01:15:42.153Z,20.4
2022-11-02T01:17:47.637Z,20.5
2022-11-02T01:18:49.827Z,20.5
2022-11-02T01:19:52.022Z,20.5
2022-11-02T01:20:54.518Z,20.5
2022-11-02T01:21:56.998Z,20.4
2022-11-02T01:22:59.196Z,20.4
2022-11-02T01:24:01.668Z,20.6
2022-11-02T01:25:03.599Z,20.4
2022-11-02T01:26:05.805Z,20.5
2022-11-02T01:27:08.274Z,20.5
2022-11-02T01:28:10.745Z,20.5
2022-11-02T01:29:12.946Z,20.5
2022-11-02T01:30:15.193Z,20.5
2022-11-02T01:31:17.709Z,20.6
2022-11-02T01:32:20.178Z,20.5
2022-11-02T01:33:22.650Z,20.5
2022-11-02T01:34:25.122Z,20.6
2022-11-02T01:35:27.313Z,20.5
2022-11-02T01:36:29.786Z,20.6
2022-11-02T01:37:31.973Z,20.6
2022-11-02T01:38:34.145Z,20.4
2022-11-02T01:39:35.763Z,20.5
2022-11-02T01:40:37.968Z,20.5
2022-11-02T01:41:40.434Z,20.5
2022-11-02T01:42:42.630Z,20.6
2022-11-02T01:43:44.543Z,20.5
2022-11-02T01:44:47.048Z,20.6
2022-11-02T01:45:49.257Z,20.6
2022-11-02T01:46:51.773Z,20.5
2022-11-02T01:47:54.240Z,20.6
2022-11-02T01:48:56.708Z,20.7
2022-11-02T01:50:00.030Z,20.7
2022-11-02T01:51:02.203Z,20.5
2022-11-02T01:52:04.687Z,20.6
2022-11-02T01:53:07.151Z,20.5
2022-11-02T01:54:09.074Z,20.7
2022-11-02T01:55:11.273Z,20.6
2022-11-02T01:56:13.609Z,20.5
2022-11-02T01:57:16.386Z,20.5
2022-11-02T01:58:18.565Z,20.6
2022-11-02T01:59:21.032Z,20.6
2022-11-02T02:00:23.501Z,20.6
2022-11-02T02:01:26.272Z,20.6
2022-11-02T02:02:29.723Z,20.6
2022-11-02T02:03:32.700Z,20.5
2022-11-02T02:04:34.894Z,20.6
2022-11-02T02:05:37.087Z,20.6
2022-11-02T02:06:39.552Z,20.5
2022-11-02T02:07:42.023Z,20.6
2022-11-02T02:08:44.241Z,20.7
2022-11-02T02:10:51.418Z,20.6
2022-11-02T02:11:53.635Z,20.6
2022-11-02T02:12:55.823Z,20.6
2022-11-02T02:13:58.019Z,20.6
2022-11-02T02:15:00.481Z,20.6
2022-11-02T02:16:02.408Z,20.7
2022-11-02T02:17:04.937Z,20.6
2022-11-02T02:18:08.027Z,20.6
2022-11-02T02:19:10.260Z,20.7
2022-11-02T02:20:12.736Z,20.6
2022-11-02T02:21:15.222Z,20.6
2022-11-02T02:22:17.445Z,20.5
2022-11-02T02:23:19.638Z,20.7
2022-11-02T02:24:22.121Z,20.7
2022-11-02T02:25:24.311Z,20.6
2022-11-02T02:26:26.502Z,20.7
2022-11-02T02:27:28.678Z,20.7
2022-11-02T02:28:30.873Z,20.6
2022-11-02T02:29:33.043Z,20.6
2022-11-02T02:30:35.515Z,20.5
2022-11-02T02:31:37.145Z,20.6
2022-11-02T02:32:39.391Z,20.7
2022-11-02T02:33:41.899Z,20.7
2022-11-02T02:34:44.365Z,20.7
2022-11-02T02:35:46.294Z,20.7
2022-11-02T02:36:48.480Z,20.6
2022-11-02T02:37:50.126Z,20.6
2022-11-02T02:38:52.049Z,20.7
2022-11-02T02:39:53.950Z,20.8
2022-11-02T02:40:56.154Z,20.7
2022-11-02T02:41:58.339Z,20.7
2022-11-02T02:43:00.820Z,20.8
2022-11-02T02:44:02.737Z,20.7
2022-11-02T02:45:05.209Z,20.6
2022-11-02T02:46:07.394Z,20.7
2022-11-02T02:47:09.574Z,20.7
2022-11-02T02:48:12.095Z,20.6
2022-11-02T02:49:14.357Z,20.7
2022-11-02T02:50:16.838Z,20.7
2022-11-02T02:51:19.033Z,20.6
2022-11-02T02:52:21.503Z,20.7
2022-11-02T02:53:23.975Z,20.7
2022-11-02T02:54:25.873Z,20.7
2022-11-02T02:55:28.069Z,20.7
2022-11-02T02:56:30.531Z,20.7
2022-11-02T02:57:32.733Z,20.7
2022-11-02T02:58:34.345Z,20.9
2022-11-02T02:59:36.544Z,20.7
2022-11-02T03:00:38.734Z,20.7
2022-11-02T03:01:41.200Z,20.8
2022-11-02T03:02:44.129Z,20.6
2022-11-02T03:03:46.587Z,20.8
2022-11-02T03:04:48.825Z,20.7
2022-11-02T03:05:50.991Z,20.7
2022-11-02T03:06:53.197Z,20.7
2022-11-02T03:07:55.668Z,20.8
2022-11-02T03:08:58.143Z,20.6
2022-11-02T03:10:00.340Z,20.7
2022-11-02T03:11:02.525Z,20.8
2022-11-02T03:12:05.010Z,20.8
2022-11-02T03:13:06.942Z,20.7
2022-11-02T03:14:09.131Z,20.8
2022-11-02T03:15:11.615Z,20.7
2022-11-02T03:16:14.086Z,20.6
2022-11-02T03:17:16.588Z,20.8
2022-11-02T03:18:18.791Z,20.7
2022-11-02T03:19:20.748Z,20.8
2022-11-02T03:20:23.264Z,20.7
2022-11-02T03:21:25.179Z,20.7
2022-11-02T03:22:27.657Z,20.7
2022-11-02T03:23:29.575Z,20.8
2022-11-02T03:24:32.051Z,20.8
2022-11-02T03:25:34.248Z,20.7
2022-11-02T03:26:36.724Z,20.8
2022-11-02T03:27:38.904Z,20.8
2022-11-02T03:28:41.097Z,20.7
2022-11-02T03:29:43.289Z,20.8
2022-11-02T03:30:45.518Z,20.8
2022-11-02T03:31:47.731Z,20.7
2022-11-02T03:32:49.406Z,20.8
2022-11-02T03:33:51.916Z,20.9
2022-11-02T03:34:54.150Z,20.8
2022-11-02T03:35:56.787Z,20.8
2022-11-02T03:36:59.230Z,20.7
2022-11-02T03:38:02.841Z,20.9
2022-11-02T03:39:06.182Z,20.9
2022-11-02T03:40:08.663Z,20.8
2022-11-02T03:41:10.865Z,20.9
2022-11-02T03:42:13.691Z,20.8
2022-11-02T03:43:16.166Z,20.8
2022-11-02T03:44:18.092Z,20.8
2022-11-02T03:45:20.276Z,20.8
2022-11-02T03:46:22.745Z,20.8
2022-11-02T03:47:24.401Z,20.7
2022-11-02T03:48:26.602Z,20.8
2022-11-02T03:49:28.790Z,20.8
2022-11-02T03:50:31.307Z,20.8
2022-11-02T03:51:33.847Z,20.8
2022-11-02T03:52:36.118Z,20.8
2022-11-02T03:53:37.820Z,20.8
2022-11-02T03:54:40.032Z,20.8
2022-11-02T03:55:42.289Z,20.7
2022-11-02T03:56:44.234Z,20.8
2022-11-02T03:57:46.466Z,20.8
2022-11-02T03:58:48.667Z,20.8
2022-11-02T03:59:51.146Z,20.7
2022-11-02T04:00:53.346Z,20.8
2022-11-02T04:01:55.782Z,20.8
2022-11-02T04:02:58.395Z,21
2022-11-02T04:04:00.886Z,20.8
2022-11-02T04:05:03.090Z,20.7
2022-11-02T04:06:05.855Z,20.8
2022-11-02T04:07:08.717Z,20.8
2022-11-02T04:08:10.670Z,20.7
2022-11-02T04:09:12.630Z,20.5
2022-11-02T04:10:15.126Z,20.8
2022-11-02T04:11:16.770Z,20.5
2022-11-02T04:12:19.274Z,20.6
2022-11-02T04:13:21.516Z,20.7
2022-11-02T04:14:23.990Z,20.6
2022-11-02T04:15:26.539Z,20.6
2022-11-02T04:16:29.222Z,20.6
2022-11-02T04:18:33.910Z,20.5
2022-11-02T04:19:36.499Z,20.5
2022-11-02T04:20:38.978Z,20.6
2022-11-02T04:21:41.300Z,20.5
2022-11-02T04:22:43.836Z,20.6
2022-11-02T04:23:46.065Z,20.5
2022-11-02T04:24:48.277Z,20.5
2022-11-02T04:25:50.463Z,20.6
2022-11-02T04:26:52.938Z,20.5
2022-11-02T04:27:55.417Z,20.5
2022-11-02T04:28:57.321Z,20.5
2022-11-02T04:29:59.514Z,20.5
2022-11-02T04:31:01.716Z,20.5
2022-11-02T04:32:03.937Z,20.3
2022-11-02T04:33:06.406Z,20.4
2022-11-02T04:34:08.323Z,20.4
2022-11-02T04:35:10.788Z,20.5
2022-11-02T04:36:12.978Z,20.4
2022-11-02T04:37:15.502Z,20.5
2022-11-02T04:38:17.750Z,20.4
2022-11-02T04:39:20.222Z,20.4
2022-11-02T04:40:22.690Z,20.5
2022-11-02T04:41:25.169Z,20.5
2022-11-02T04:42:27.629Z,20.4
2022-11-02T04:43:29.272Z,20.4
2022-11-02T04:44:31.462Z,20.5
2022-11-02T04:45:33.661Z,20.4
2022-11-02T04:46:36.121Z,20.4
2022-11-02T04:47:38.647Z,20.3
2022-11-02T04:48:41.144Z,20.4
2022-11-02T04:49:43.720Z,20.5
2022-11-02T04:50:46.210Z,20.3
2022-11-02T04:51:50.528Z,20.3
2022-11-02T04:52:52.851Z,20.4
2022-11-02T04:53:55.094Z,20.4
2022-11-02T04:54:57.015Z,20.4
2022-11-02T04:55:59.483Z,20.4
2022-11-02T04:57:01.405Z,20.4
2022-11-02T04:58:03.988Z,20.3
2022-11-02T04:59:07.976Z,20.5
2022-11-02T05:00:10.475Z,20.4
2022-11-02T05:01:12.714Z,20.5
2022-11-02T05:02:15.439Z,20.3
2022-11-02T05:03:18.177Z,20.4
2022-11-02T05:04:20.403Z,20.2
2022-11-02T05:05:22.891Z,20.3
2022-11-02T05:06:25.367Z,20.3
2022-11-02T05:07:27.567Z,20.3
2022-11-02T05:08:30.080Z,20.3
2022-11-02T05:09:32.613Z,20.4
2022-11-02T05:10:35.090Z,20.5
2022-11-02T05:11:37.290Z,20.4
2022-11-02T05:12:39.773Z,20.3
2022-11-02T05:13:42.260Z,20.3
2022-11-02T05:14:44.459Z,20.2
2022-11-02T05:15:46.953Z,20.4
2022-11-02T05:16:49.150Z,20.3
2022-11-02T05:17:51.707Z,20.2
2022-11-02T05:18:54.114Z,20.3
2022-11-02T05:19:56.587Z,20.3
2022-11-02T05:20:58.507Z,20.2
2022-11-02T05:22:00.975Z,20.4
2022-11-02T05:23:04.134Z,20.2
2022-11-02T05:24:08.181Z,20.1
2022-11-02T05:25:10.425Z,20.3
2022-11-02T05:26:12.898Z,20.2
2022-11-02T05:27:15.117Z,20.2
2022-11-02T05:28:17.615Z,20.2
2022-11-02T05:29:19.812Z,20.4
2022-11-02T05:30:22.335Z,20.3
2022-11-02T05:31:24.829Z,20.4
2022-11-02T05:32:26.774Z,20.3
2022-11-02T05:33:31.365Z,20.3
2022-11-02T05:34:33.861Z,20.3
2022-11-02T05:35:36.068Z,20.2
2022-11-02T05:36:38.003Z,20.2
2022-11-02T05:37:40.212Z,20.1
2022-11-02T05:38:42.703Z,20.3
2022-11-02T05:40:50.326Z,20.3
2022-11-02T05:41:52.889Z,20.3
2022-11-02T05:42:55.358Z,20.4
2022-11-02T05:43:57.557Z,20.2
2022-11-02T05:45:00.032Z,20.2
2022-11-02T05:46:02.551Z,20.3
2022-11-02T05:47:04.750Z,20.3
2022-11-02T05:48:06.958Z,20.2
2022-11-02T05:49:09.143Z,20.3
2022-11-02T05:50:11.618Z,20.1
2022-11-02T05:51:14.107Z,20.1
2022-11-02T05:52:16.315Z,20.2
2022-11-02T05:53:18.782Z,20
2022-11-02T05:54:21.262Z,20.1
2022-11-02T05:55:23.748Z,20.2
2022-11-02T05:56:26.049Z,20.2
2022-11-02T05:57:28.570Z,20.3
2022-11-02T05:58:31.047Z,20.1
2022-11-02T05:59:33.246Z,20.2
2022-11-02T06:00:35.726Z,20.1
2022-11-02T06:01:38.096Z,20.1
2022-11-02T06:02:40.932Z,20.2
2022-11-02T06:03:44.337Z,20.3
2022-11-02T06:04:51.774Z,20.1
2022-11-02T06:05:54.133Z,20.1
2022-11-02T06:06:56.604Z,20.3
2022-11-02T06:07:59.085Z,20.2
2022-11-02T06:10:06.296Z,20.3
2022-11-02T06:11:08.226Z,20.2
2022-11-02T06:12:10.720Z,20.3
2022-11-02T06:13:13.270Z,20.2
2022-11-02T06:14:15.751Z,20.2
2022-11-02T06:15:17.955Z,20.2
2022-11-02T06:17:24.594Z,20.3
2022-11-02T06:18:26.226Z,20
2022-11-02T06:19:28.518Z,20.3
2022-11-02T06:20:30.732Z,20.1
2022-11-02T06:21:33.298Z,20.2
2022-11-02T06:22:35.774Z,20.1
2022-11-02T06:23:38.263Z,20.1
2022-11-02T06:24:40.744Z,20.2
2022-11-02T06:25:43.221Z,20.3
2022-11-02T06:26:45.450Z,20.3
2022-11-02T06:27:47.673Z,20.1
2022-11-02T06:28:50.208Z,20.2
2022-11-02T06:29:52.404Z,20.3
2022-11-02T06:30:54.605Z,20.3
2022-11-02T06:31:57.078Z,20.3
2022-11-02T06:34:04.581Z,20.2
2022-11-02T06:35:06.798Z,20.2
2022-11-02T06:36:09.279Z,20.2
2022-11-02T06:37:11.229Z,20.2
2022-11-02T06:38:13.711Z,20.3
2022-11-02T06:39:15.394Z,20.2
2022-11-02T06:41:22.857Z,20.1
2022-11-02T06:42:24.809Z,20.2
2022-11-02T06:43:27.041Z,20.2
2022-11-02T06:44:29.578Z,20.2
2022-11-02T06:45:30.930Z,20.2
2022-11-02T06:46:33.526Z,20.2
2022-11-02T06:47:35.734Z,20.1
2022-11-02T06:48:38.238Z,20.2
2022-11-02T06:49:40.139Z,20.1
2022-11-02T06:50:42.644Z,20.1
2022-11-02T06:51:44.366Z,20.3
2022-11-02T06:52:46.355Z,20.1
2022-11-02T06:53:48.571Z,20.3
2022-11-02T06:54:51.049Z,20.1
2022-11-02T06:55:53.245Z,20.2
2022-11-02T06:56:55.187Z,20.1
2022-11-02T06:57:57.704Z,20.2
2022-11-02T06:58:59.921Z,20.1
2022-11-02T07:00:02.734Z,20.2
2022-11-02T07:01:05.784Z,20.2
2022-11-02T07:02:09.155Z,20.2
2022-11-02T07:03:12.057Z,20.3
2022-11-02T07:04:14.271Z,20.1
2022-11-02T07:05:16.500Z,20.1
2022-11-02T07:06:19.004Z,20.1
2022-11-02T07:07:21.502Z,20.1
2022-11-02T07:08:23.990Z,20.3
2022-11-02T07:09:26.201Z,20.2
2022-11-02T07:10:28.667Z,20.2
2022-11-02T07:11:30.828Z,20.3
2022-11-02T07:12:32.734Z,20.2
2022-11-02T07:13:35.251Z,20.3
2022-11-02T07:14:37.521Z,20.2
2022-11-02T07:15:40.108Z,20
2022-11-02T07:16:42.618Z,20.3
2022-11-02T07:17:44.837Z,20.3
2022-11-02T07:18:47.038Z,20.2
2022-11-02T07:19:48.981Z,20.3
2022-11-02T07:20:50.621Z,20.1
2022-11-02T07:21:52.853Z,20.3
2022-11-02T07:22:55.047Z,20.1
2022-11-02T07:23:57.607Z,20.2
2022-11-02T07:24:59.827Z,20.1
2022-11-02T07:26:02.327Z,20.1
2022-11-02T07:27:04.524Z,20.2
2022-11-02T07:28:06.466Z,20.1
2022-11-02T07:29:08.686Z,20.2
2022-11-02T07:30:11.202Z,20.3
2022-11-02T07:31:13.774Z,20.1
2022-11-02T07:32:16.254Z,20
2022-11-02T07:33:18.468Z,20.2
2022-11-02T07:34:19.850Z,20.2
2022-11-02T07:35:22.030Z,19.9
2022-11-02T07:36:23.971Z,20.2
2022-11-02T07:37:26.455Z,20.2
2022-11-02T07:38:28.621Z,20.2
2022-11-02T07:39:30.886Z,20.2
2022-11-02T07:40:32.815Z,20.3
2022-11-02T07:41:35.046Z,20.2
2022-11-02T07:42:36.683Z,20.3
2022-11-02T07:44:44.192Z,20.2
2022-11-02T07:45:46.697Z,20.2
2022-11-02T07:46:49.305Z,20.2
2022-11-02T07:47:51.785Z,20.2
2022-11-02T07:48:54.261Z,20.2
2022-11-02T07:49:56.670Z,20.1
2022-11-02T07:50:59.829Z,20.3
2022-11-02T07:52:01.772Z,19.9
2022-11-02T07:53:04.707Z,20.3
2022-11-02T07:54:08.746Z,20.2
2022-11-02T07:55:10.967Z,20.1
2022-11-02T07:56:13.197Z,20.2
2022-11-02T07:57:15.668Z,20.1
2022-11-02T07:58:17.902Z,20.1
2022-11-02T07:59:20.382Z,20.2
2022-11-02T08:00:22.617Z,20.3
2022-11-02T08:01:24.732Z,20.1
2022-11-02T08:02:27.738Z,20
2022-11-02T08:03:29.982Z,20.1
2022-11-02T08:04:32.601Z,20.2
2022-11-02T08:05:34.277Z,20.2
2022-11-02T08:06:36.767Z,20.3
2022-11-02T08:07:38.967Z,20
2022-11-02T08:08:41.174Z,20
2022-11-02T08:09:43.092Z,20.1
2022-11-02T08:10:45.314Z,20.3
2022-11-02T08:11:47.525Z,20.1
2022-11-02T08:12:49.737Z,20
2022-11-02T08:13:52.249Z,20.1
2022-11-02T08:14:54.746Z,20
2022-11-02T08:15:57.249Z,20.1
2022-11-02T08:16:59.346Z,20
2022-11-02T08:18:02.595Z,20
2022-11-02T08:19:06.602Z,20.1
2022-11-02T08:20:08.530Z,20
2022-11-02T08:21:10.742Z,20.2
2022-11-02T08:22:12.996Z,20.2
2022-11-02T08:23:15.207Z,20
2022-11-02T08:24:17.686Z,20.1
2022-11-02T08:25:20.167Z,20.1
2022-11-02T08:26:21.532Z,20
2022-11-02T08:27:23.754Z,20.1
2022-11-02T08:28:25.958Z,20.3
2022-11-02T08:29:27.900Z,20.3
2022-11-02T08:30:30.388Z,20.2
2022-11-02T08:31:32.901Z,20
2022-11-02T08:32:35.405Z,20
2022-11-02T08:33:37.728Z,20.1
2022-11-02T08:34:39.927Z,20.3
2022-11-02T08:35:42.116Z,20
2022-11-02T08:36:44.331Z,20.2
2022-11-02T08:37:46.001Z,20
2022-11-02T08:38:47.924Z,20.1
2022-11-02T08:39:49.846Z,20.2
2022-11-02T08:40:52.038Z,20.1
2022-11-02T08:41:54.534Z,20.1
2022-11-02T08:42:56.731Z,20.2
2022-11-02T08:43:58.937Z,20.1
2022-11-02T08:45:01.422Z,20.2
2022-11-02T08:47:10.223Z,20.2
2022-11-02T08:48:12.731Z,20.3
2022-11-02T08:49:15.017Z,20.1
2022-11-02T08:50:16.963Z,20.2
2022-11-02T08:51:19.164Z,20.1
2022-11-02T08:52:20.948Z,20.1
2022-11-02T08:53:23.145Z,20.2
2022-11-02T08:54:24.806Z,20.1
2022-11-02T08:55:26.711Z,20.2
2022-11-02T08:56:29.194Z,20.2
2022-11-02T08:57:31.670Z,20.1
2022-11-02T08:58:33.880Z,20
2022-11-02T08:59:36.357Z,19.9
2022-11-02T09:00:38.555Z,20.1
2022-11-02T09:01:40.982Z,20
2022-11-02T09:02:44.137Z,20
2022-11-02T09:03:46.718Z,20.1
2022-11-02T09:04:49.273Z,20.1
2022-11-02T09:05:51.777Z,20.1
2022-11-02T09:06:53.694Z,20.1
2022-11-02T09:07:55.633Z,20.2
2022-11-02T09:08:59.672Z,20.2
2022-11-02T09:10:02.206Z,20.2
2022-11-02T09:11:04.412Z,20.1
2022-11-02T09:12:06.915Z,20
2022-11-02T09:13:09.489Z,20.1
2022-11-02T09:14:12.100Z,20.1
2022-11-02T09:15:14.747Z,20.2
2022-11-02T09:16:16.946Z,20.3
2022-11-02T09:17:18.863Z,20.3
2022-11-02T09:18:21.099Z,19.9
2022-11-02T09:19:23.351Z,20.1
2022-11-02T09:20:25.942Z,20.2
2022-11-02T09:21:28.427Z,20.2
2022-11-02T09:22:30.397Z,20
2022-11-02T09:23:32.630Z,19.8
2022-11-02T09:24:35.107Z,20.3
2022-11-02T09:25:37.316Z,19.9
2022-11-02T09:26:39.416Z,20
2022-11-02T09:27:41.894Z,20.2
2022-11-02T09:28:44.375Z,20.1
2022-11-02T09:29:46.598Z,20.1
2022-11-02T09:30:48.237Z,20.1
2022-11-02T09:31:50.196Z,20
2022-11-02T09:32:52.687Z,20.2
2022-11-02T09:33:54.656Z,20.1
2022-11-02T09:34:56.872Z,20.2
2022-11-02T09:35:59.441Z,20.1
2022-11-02T09:37:01.640Z,20.1
2022-11-02T09:38:03.625Z,20.1
2022-11-02T09:39:05.837Z,20.1
2022-11-02T09:40:07.481Z,20.2
2022-11-02T09:41:09.707Z,20.2
2022-11-02T09:42:11.911Z,20.2
2022-11-02T09:43:14.123Z,20.3
2022-11-02T09:44:16.594Z,20.2
2022-11-02T09:45:18.810Z,20
2022-11-02T09:46:20.747Z,20
2022-11-02T09:48:29.131Z,20
2022-11-02T09:49:33.260Z,20.2
2022-11-02T09:50:35.220Z,20.2
2022-11-02T09:51:37.810Z,19.9
2022-11-02T09:52:40.289Z,20.1
2022-11-02T09:53:42.785Z,20
2022-11-02T09:54:44.961Z,20.1
2022-11-02T09:55:46.889Z,20
2022-11-02T09:56:49.105Z,19.9
2022-11-02T09:57:51.320Z,19.9
2022-11-02T09:58:53.235Z,19.8
2022-11-02T09:59:55.446Z,20
2022-11-02T10:02:02.410Z,20.1
2022-11-02T10:03:04.917Z,20.1
2022-11-02T10:04:07.329Z,20
2022-11-02T10:05:09.554Z,20.2
2022-11-02T10:06:11.788Z,20.3
2022-11-02T10:07:14.391Z,20.1
2022-11-02T10:08:16.017Z,20
2022-11-02T10:09:18.219Z,20
2022-11-02T10:10:20.203Z,20.2
2022-11-02T10:11:22.595Z,20.1
2022-11-02T10:12:24.406Z,20.1
2022-11-02T10:13:26.617Z,19.9
2022-11-02T10:14:28.543Z,20.1
2022-11-02T10:15:30.777Z,20
2022-11-02T10:16:33.024Z,20.1
2022-11-02T10:17:35.241Z,20.2
2022-11-02T10:18:37.165Z,20.1
2022-11-02T10:19:39.079Z,20.2
2022-11-02T10:20:41.592Z,20.2
2022-11-02T10:21:44.110Z,20
2022-11-02T10:22:46.671Z,19.9
2022-11-02T10:23:48.859Z,19.9
2022-11-02T10:24:51.054Z,20.1
2022-11-02T10:25:53.245Z,19.9
2022-11-02T10:26:54.878Z,20.3
2022-11-02T10:27:57.439Z,20.1
2022-11-02T10:28:59.360Z,20.2
2022-11-02T10:30:01.330Z,20.3
2022-11-02T10:31:03.838Z,20.1
2022-11-02T10:32:06.067Z,19.8
2022-11-02T10:33:08.571Z,20.2
2022-11-02T10:34:11.074Z,20.1
2022-11-02T10:36:19.989Z,19.9
2022-11-02T10:37:22.722Z,20.2
2022-11-02T10:38:24.981Z,19.9
2022-11-02T10:39:26.927Z,20.1
2022-11-02T10:40:28.840Z,20.3
2022-11-02T10:41:31.055Z,20.2
2022-11-02T10:42:33.533Z,20
2022-11-02T10:43:35.182Z,20
2022-11-02T10:44:37.408Z,20.2
2022-11-02T10:45:39.690Z,20.3
2022-11-02T10:46:41.412Z,20.1
2022-11-02T10:47:43.953Z,20.1
2022-11-02T10:48:46.176Z,19.9
2022-11-02T10:49:48.688Z,20.2
2022-11-02T10:50:51.157Z,20.2
2022-11-02T10:51:53.107Z,20.1
2022-11-02T10:52:55.483Z,20
2022-11-02T10:54:00.946Z,19.9
2022-11-02T10:55:03.765Z,20
2022-11-02T10:56:06.260Z,20.2
2022-11-02T10:57:08.479Z,20
2022-11-02T10:58:10.390Z,20.3
2022-11-02T10:59:12.598Z,20.2
2022-11-02T11:00:14.814Z,20.1
2022-11-02T11:01:17.087Z,20.2
2022-11-02T11:02:19.540Z,19.9
2022-11-02T11:03:22.043Z,20.2
2022-11-02T11:04:24.256Z,20
2022-11-02T11:05:26.748Z,20
2022-11-02T11:06:28.945Z,20.1
2022-11-02T11:07:30.752Z,20.1
2022-11-02T11:08:33.492Z,20.1
2022-11-02T11:09:35.690Z,20
2022-11-02T11:10:38.243Z,20
2022-11-02T11:11:40.455Z,20.1
2022-11-02T11:12:42.115Z,20.1
2022-11-02T11:15:53.759Z,20.2
2022-11-02T11:16:56.760Z,20.1
2022-11-02T11:20:12.638Z,19.8
2022-11-02T11:21:14.872Z,20
2022-11-02T11:22:17.084Z,20
2022-11-02T11:23:19.296Z,19.9
2022-11-02T11:24:21.399Z,20.1
2022-11-02T11:26:28.640Z,20.1
2022-11-02T11:27:30.908Z,20
2022-11-02T11:28:33.103Z,20.1
2022-11-02T11:29:35.307Z,20.2
2022-11-02T11:31:42.783Z,19.8
2022-11-02T11:32:45.276Z,19.9
2022-11-02T11:33:47.208Z,20.1
2022-11-02T11:34:49.417Z,20
2022-11-02T11:35:51.659Z,20
2022-11-02T11:36:54.182Z,20
2022-11-02T11:37:56.162Z,20.2
2022-11-02T11:38:58.711Z,20.1
2022-11-02T11:40:00.934Z,20
2022-11-02T11:41:03.124Z,20.2
2022-11-02T11:42:05.340Z,20.2
2022-11-02T11:43:07.679Z,20.1
2022-11-02T11:44:09.605Z,20
2022-11-02T11:45:11.817Z,20
2022-11-02T11:46:14.299Z,20.1
2022-11-02T11:47:16.230Z,20.1
2022-11-02T11:48:18.432Z,20.1
2022-11-02T11:49:20.927Z,19.9
2022-11-02T11:51:31.900Z,20.1
2022-11-02T11:52:34.455Z,20.1
2022-11-02T11:53:36.660Z,20.1
2022-11-02T11:54:38.883Z,20.1
2022-11-02T11:55:41.389Z,20.3
2022-11-02T11:56:43.868Z,20
2022-11-02T11:57:45.875Z,20
2022-11-02T11:59:53.607Z,19.9
2022-11-02T12:00:55.529Z,20.2
2022-11-02T12:01:57.494Z,19.9
2022-11-02T12:03:01.077Z,20
2022-11-02T12:04:05.222Z,20
2022-11-02T12:05:07.159Z,20
2022-11-02T12:06:09.089Z,20
2022-11-02T12:07:11.011Z,20.1
2022-11-02T12:08:13.488Z,19.8
2022-11-02T12:09:15.424Z,20.1
2022-11-02T12:10:17.367Z,20.1
2022-11-02T12:11:20.018Z,19.8
2022-11-02T12:12:21.951Z,20.1
2022-11-02T12:13:23.891Z,20
2022-11-02T12:14:26.166Z,20
2022-11-02T12:15:28.684Z,19.8
2022-11-02T12:16:30.901Z,20
2022-11-02T12:17:33.411Z,20.1
2022-11-02T12:18:35.314Z,20.2
2022-11-02T12:19:37.798Z,20
2022-11-02T12:20:39.727Z,19.8
2022-11-02T12:21:41.932Z,20.1
2022-11-02T12:22:43.289Z,20
2022-11-02T12:23:45.211Z,20.2
2022-11-02T12:24:47.415Z,20.2
2022-11-02T12:25:49.686Z,19.9
2022-11-02T12:26:52.207Z,20.2
2022-11-02T12:27:55.200Z,20
2022-11-02T12:28:57.723Z,20
2022-11-02T12:30:00.027Z,20
2022-11-02T12:31:01.673Z,19.9
2022-11-02T12:32:04.197Z,19.8
2022-11-02T12:33:07.373Z,20.1
2022-11-02T12:34:10.150Z,20.2
2022-11-02T12:36:17.334Z,20
2022-11-02T12:38:24.575Z,20
2022-11-02T12:39:26.764Z,20
2022-11-02T12:40:28.962Z,20.1
2022-11-02T12:41:31.171Z,20.1
2022-11-02T12:42:33.121Z,20
2022-11-02T12:43:41.796Z,20
2022-11-02T12:44:44.276Z,19.8
2022-11-02T12:45:46.742Z,20.1
2022-11-02T12:46:49.896Z,20.1
2022-11-02T12:47:51.840Z,19.8
2022-11-02T12:48:53.765Z,20
2022-11-02T12:49:56.243Z,20.2
2022-11-02T12:50:58.669Z,20.2
2022-11-02T12:52:00.892Z,20.1
2022-11-02T12:53:03.574Z,20.1
2022-11-02T12:54:07.575Z,20.1
2022-11-02T12:56:15.045Z,20.2
2022-11-02T12:57:17.304Z,20
2022-11-02T12:58:19.813Z,20.1
2022-11-02T12:59:22.291Z,19.8
2022-11-02T13:00:23.942Z,20
2022-11-02T13:01:26.993Z,20
2022-11-02T13:02:29.741Z,20.2
2022-11-02T13:03:31.653Z,19.8
2022-11-02T13:05:38.861Z,20.1
2022-11-02T13:06:41.080Z,19.9
2022-11-02T13:07:43.318Z,20.1
2022-11-02T13:08:45.247Z,20
2022-11-02T13:10:54.373Z,20.1
2022-11-02T13:11:56.887Z,20
2022-11-02T13:12:59.457Z,19.9
2022-11-02T13:14:01.468Z,19.9
2022-11-02T13:16:08.702Z,20
2022-11-02T13:17:11.020Z,20.1
2022-11-02T13:18:13.541Z,19.9
2022-11-02T13:19:16.058Z,20
2022-11-02T13:20:18.572Z,20
2022-11-02T13:21:21.115Z,20.2
2022-11-02T13:22:22.793Z,20
2022-11-02T13:23:24.941Z,20.1
2022-11-02T13:25:32.719Z,20.1
2022-11-02T13:26:34.363Z,20.1
2022-11-02T13:28:41.588Z,20.1
2022-11-02T13:29:43.539Z,20.2
2022-11-02T13:30:45.464Z,20.3
2022-11-02T13:31:49.159Z,20
2022-11-02T13:32:51.752Z,20
2022-11-02T13:33:54.279Z,20.1
2022-11-02T13:34:56.265Z,20.1
2022-11-02T13:35:58.827Z,20.1
2022-11-02T13:37:01.338Z,20.2
2022-11-02T13:38:04.588Z,19.8
2022-11-02T13:39:08.643Z,19.9
2022-11-02T13:40:11.241Z,19.9
2022-11-02T13:41:13.496Z,19.9
2022-11-02T13:42:15.741Z,20
2022-11-02T13:43:18.228Z,20
2022-11-02T13:44:20.813Z,20.1
2022-11-02T13:45:22.878Z,19.9
2022-11-02T13:46:25.684Z,19.9
2022-11-02T13:47:27.346Z,20.2
2022-11-02T13:48:29.940Z,20
2022-11-02T13:49:31.872Z,20
2022-11-02T13:50:34.384Z,20
2022-11-02T13:51:36.068Z,19.9
2022-11-02T13:52:38.257Z,20.1
2022-11-02T13:53:40.751Z,20
2022-11-02T13:54:42.813Z,20
2022-11-02T13:55:46.616Z,20.1
2022-11-02T13:56:49.134Z,20.1
2022-11-02T13:57:50.770Z,19.9
2022-11-02T13:58:52.721Z,20.1
2022-11-02T13:59:55.277Z,20
2022-11-02T14:00:57.792Z,20.2
2022-11-02T14:02:00.750Z,19.9
2022-11-02T14:03:05.143Z,20.1
2022-11-02T14:04:09.246Z,19.9
2022-11-02T14:05:11.473Z,20.3
2022-11-02T14:06:13.985Z,20
2022-11-02T14:07:16.548Z,19.9
2022-11-02T14:08:18.762Z,20
2022-11-02T14:09:21.246Z,20
2022-11-02T14:10:23.183Z,20.3
2022-11-02T14:11:25.670Z,19.9
2022-11-02T14:12:28.181Z,20
2022-11-02T14:13:30.382Z,20
2022-11-02T14:14:32.053Z,20.1
2022-11-02T14:15:34.761Z,20.1
2022-11-02T14:16:36.699Z,20.1
2022-11-02T14:17:38.913Z,19.9
2022-11-02T14:18:40.849Z,19.9
2022-11-02T14:19:43.402Z,20.1
2022-11-02T14:20:45.603Z,20.1
2022-11-02T14:21:47.572Z,20.1
2022-11-02T14:22:49.515Z,20
2022-11-02T14:23:51.468Z,20.2
2022-11-02T14:24:54.020Z,20
2022-11-02T14:25:56.284Z,20
2022-11-02T14:26:58.493Z,20.2
2022-11-02T14:29:05.699Z,19.8
2022-11-02T14:30:07.911Z,19.8
2022-11-02T14:31:10.314Z,20